Pelican Lake, Wisconsin
Current Conditions -  °F | °C
As of 9:53 PM on Saturday 24 Jan 2015 (Local Time) from KRHI Reporting Station
Overcast Overcast  
Wind Chill: 11°   Ceiling: 3700
Heat Index: 22°   Visibility: 10mi
Dew Point: 16°   Wind: 10mph
Humidity: 78%   Direction: 50°NE
Pressure: 29.7"   Gusts: NA
Location:  45.5°N, 89.17°W
Report Text: KRHI 250353Z AUTO 05009KT 10SM OVC037 M06/M09 A2970 RMK AO2 SLP077 T10561089
Loading
Personal Weather Stations






























Interactive Weather Map New forecast layout! Learn more

10-Day Weather Forecast

Advertisements
Track Severe Weather on mobile